Time;durP1;ratioP1;P1;durP2;ratioP2;P2;SDS_P1;SDS_P2;PMS_P1;PMS_P2;Temp;Humidity;BMP_temperature;BMP_pressure;BME280_temperature;BME280_humidity;BME280_pressure;Samples;Min_cycle;Max_cycle;Signal;HPM_P1;HPM_P2
2023/11/13 00:00:33;;;;;;;27.98;22.10;;;;;21.60;99710.00;;;;2072620;28;20291;-63
2023/11/13 00:01:33;;;;;;;28.70;22.43;;;;;21.60;99710.00;;;;2072330;28;20670;-63
2023/11/13 00:02:33;;;;;;;30.70;23.53;;;;;21.70;99710.00;;;;2072135;28;20207;-63
2023/11/13 00:03:34;;;;;;;27.30;21.60;;;;;21.70;99719.00;;;;2062684;28;20559;-63
2023/11/13 00:04:34;;;;;;;27.43;21.23;;;;;21.60;99714.00;;;;2075902;28;20597;-63
2023/11/13 00:05:35;;;;;;;26.03;20.67;;;;;21.60;99713.00;;;;2075372;28;20709;-63
2023/11/13 00:06:35;;;;;;;26.80;20.70;;;;;21.60;99711.00;;;;2071713;28;20225;-63
2023/11/13 00:07:35;;;;;;;26.07;20.97;;;;;21.60;99720.00;;;;2072561;28;20245;-63
2023/11/13 00:08:36;;;;;;;24.97;20.70;;;;;21.60;99716.00;;;;2062705;28;20242;-63
2023/11/13 00:09:36;;;;;;;22.97;19.57;;;;;21.60;99716.00;;;;2072035;28;20272;-63
2023/11/13 00:10:37;;;;;;;26.57;20.47;;;;;21.60;99714.00;;;;2072454;28;20868;-63
2023/11/13 00:11:38;;;;;;;25.17;20.05;;;;;21.50;99699.00;;;;2071580;28;20245;-63
2023/11/13 00:12:38;;;;;;;24.23;18.93;;;;;21.60;99703.00;;;;2072549;28;20304;-63
2023/11/13 00:13:39;;;;;;;23.60;19.17;;;;;21.60;99705.00;;;;2061921;28;20241;-63
2023/11/13 00:14:39;;;;;;;25.90;20.23;;;;;21.60;99708.00;;;;2072146;28;20569;-63
2023/11/13 00:15:39;;;;;;;23.57;18.37;;;;;21.60;99723.00;;;;2072322;28;20696;-63
2023/11/13 00:16:40;;;;;;;22.83;18.70;;;;;21.50;99716.00;;;;2071771;28;20218;-63
2023/11/13 00:17:40;;;;;;;23.83;18.77;;;;;21.50;99717.00;;;;2072496;28;20691;-63
2023/11/13 00:18:41;;;;;;;21.13;17.27;;;;;21.60;99719.00;;;;2059421;28;20685;-63
2023/11/13 00:19:43;;;;;;;21.03;16.87;;;;;21.60;99710.00;;;;2070255;28;20214;-63
2023/11/13 00:20:45;;;;;;;23.08;17.17;;;;;21.60;99716.00;;;;2071546;28;20218;-63
2023/11/13 00:21:45;;;;;;;20.58;16.52;;;;;21.60;99721.00;;;;2071987;28;20213;-63
2023/11/13 00:22:46;;;;;;;22.60;16.17;;;;;21.50;99722.00;;;;2072453;28;20234;-63
2023/11/13 00:23:46;;;;;;;20.87;17.30;;;;;21.60;99727.00;;;;2061828;28;20301;-63
2023/11/13 00:24:47;;;;;;;21.70;16.00;;;;;21.60;99733.00;;;;2072205;28;20241;-63
2023/11/13 00:25:47;;;;;;;20.23;15.83;;;;;21.60;99724.00;;;;2070903;28;20214;-63
2023/11/13 00:26:48;;;;;;;19.70;15.83;;;;;21.60;99724.00;;;;2072346;28;20763;-63
2023/11/13 00:27:48;;;;;;;22.50;16.80;;;;;21.50;99722.00;;;;2069198;28;20677;-63
2023/11/13 00:28:48;;;;;;;17.43;14.73;;;;;21.60;99714.00;;;;2066551;28;20625;-63
2023/11/13 00:29:49;;;;;;;18.97;15.70;;;;;21.50;99716.00;;;;2072167;28;20206;-63
2023/11/13 00:30:49;;;;;;;21.70;16.70;;;;;21.50;99719.00;;;;2071806;28;20229;-63
2023/11/13 00:31:49;;;;;;;17.93;15.07;;;;;21.50;99715.00;;;;2072417;28;20234;-63
2023/11/13 00:32:50;;;;;;;17.87;14.73;;;;;21.50;99726.00;;;;2061777;28;20214;-63
2023/11/13 00:33:50;;;;;;;19.67;15.07;;;;;21.50;99718.00;;;;2071876;28;20212;-63
2023/11/13 00:34:50;;;;;;;19.70;14.53;;;;;21.50;99718.00;;;;2071198;28;20214;-63
2023/11/13 00:35:51;;;;;;;18.60;15.00;;;;;21.50;99713.00;;;;2078413;28;20237;-63
2023/11/13 00:36:51;;;;;;;18.23;15.07;;;;;21.50;99717.00;;;;2072293;28;20210;-63
2023/11/13 00:37:52;;;;;;;19.37;14.20;;;;;21.50;99716.00;;;;2061607;28;20230;-63
2023/11/13 00:38:52;;;;;;;16.83;13.17;;;;;21.50;99712.00;;;;2070238;28;20693;-63
2023/11/13 00:39:52;;;;;;;17.43;13.30;;;;;21.50;99700.00;;;;2071303;28;20765;-63
2023/11/13 00:40:52;;;;;;;16.00;12.80;;;;;21.50;99694.00;;;;2072224;28;20744;-63
2023/11/13 00:41:53;;;;;;;16.03;13.40;;;;;21.50;99693.00;;;;2072187;28;20214;-63
2023/11/13 00:42:53;;;;;;;16.30;13.13;;;;;21.50;99694.00;;;;2061917;28;20264;-63
2023/11/13 00:43:54;;;;;;;18.37;13.60;;;;;21.50;99694.00;;;;2068805;28;20226;-63
2023/11/13 00:44:54;;;;;;;15.17;12.83;;;;;21.50;99663.00;;;;2070433;28;20720;-63
2023/11/13 00:45:54;;;;;;;16.57;13.10;;;;;21.50;99698.00;;;;2072053;28;20594;-63
2023/11/13 00:46:55;;;;;;;15.47;11.90;;;;;21.50;99697.00;;;;2071411;28;20566;-63
2023/11/13 00:47:55;;;;;;;15.40;12.43;;;;;21.40;99691.00;;;;2062667;28;20762;-63
2023/11/13 00:48:55;;;;;;;14.90;11.80;;;;;21.40;99680.00;;;;2072204;28;20713;-63
2023/11/13 00:49:56;;;;;;;16.73;12.20;;;;;21.40;99685.00;;;;2071141;28;20225;-63
2023/11/13 00:50:57;;;;;;;15.52;11.80;;;;;21.40;99676.00;;;;2070817;28;20261;-63
2023/11/13 00:51:57;;;;;;;14.50;11.37;;;;;21.40;99673.00;;;;2071324;28;20578;-63
2023/11/13 00:52:58;;;;;;;15.87;12.33;;;;;21.40;99669.00;;;;2062519;28;20218;-63
2023/11/13 00:53:58;;;;;;;11.90;9.73;;;;;21.40;99675.00;;;;2071353;28;20280;-63
2023/11/13 00:54:58;;;;;;;14.67;11.30;;;;;21.40;99669.00;;;;2072023;28;20210;-63
2023/11/13 00:55:59;;;;;;;14.70;11.27;;;;;21.50;99674.00;;;;2071943;28;20234;-63
2023/11/13 00:56:59;;;;;;;13.47;10.57;;;;;21.40;99673.00;;;;2071581;28;20202;-63
2023/11/13 00:57:59;;;;;;;13.20;10.40;;;;;21.40;99674.00;;;;2054436;28;20211;-63
2023/11/13 00:59:00;;;;;;;13.43;10.30;;;;;21.40;99672.00;;;;2071540;28;20218;-63
2023/11/13 01:00:03;;;;;;;12.20;10.37;;;;;21.40;99673.00;;;;2072069;28;20210;-63
2023/11/13 01:01:06;;;;;;;13.40;11.15;;;;;21.30;99676.00;;;;2071533;28;20720;-63
2023/11/13 01:02:07;;;;;;;11.90;9.60;;;;;21.40;99675.00;;;;2071744;28;20301;-63
2023/11/13 01:03:07;;;;;;;15.20;10.90;;;;;21.30;99678.00;;;;2062565;28;20252;-63
2023/11/13 01:04:07;;;;;;;12.70;9.77;;;;;21.40;99680.00;;;;2071411;28;20308;-63
2023/11/13 01:05:08;;;;;;;12.93;9.90;;;;;21.40;99676.00;;;;2071924;28;20214;-63
2023/11/13 01:06:14;;;;;;;12.60;10.23;;;;;21.40;99665.00;;;;2071214;28;20222;-63
2023/11/13 01:07:16;;;;;;;11.95;9.57;;;;;21.40;99660.00;;;;2070231;28;20601;-63
2023/11/13 01:08:16;;;;;;;11.02;9.18;;;;;21.40;99662.00;;;;2061273;28;20226;-63
2023/11/13 01:09:16;;;;;;;12.60;9.33;;;;;21.40;99653.00;;;;2066293;28;20218;-63
2023/11/13 01:10:17;;;;;;;12.20;9.33;;;;;21.40;99650.00;;;;2069658;28;20202;-63
2023/11/13 01:11:17;;;;;;;11.67;9.23;;;;;21.40;99645.00;;;;2070054;28;20293;-63
2023/11/13 01:12:19;;;;;;;10.97;8.70;;;;;21.40;99652.00;;;;2072103;28;20213;-63
2023/11/13 01:13:20;;;;;;;13.52;9.98;;;;;21.30;99646.00;;;;2061513;28;20222;-63
2023/11/13 01:14:20;;;;;;;11.07;9.13;;;;;21.30;99648.00;;;;2071582;28;20351;-63
2023/11/13 01:15:21;;;;;;;10.37;9.27;;;;;21.30;99643.00;;;;2071301;28;20537;-63
2023/11/13 01:16:21;;;;;;;10.87;9.23;;;;;21.30;99640.00;;;;2071815;28;20210;-63
2023/11/13 01:17:21;;;;;;;14.20;9.90;;;;;21.30;99634.00;;;;2072127;28;20708;-63
2023/11/13 01:18:23;;;;;;;11.80;9.30;;;;;21.30;99637.00;;;;2061282;28;20301;-63
2023/11/13 01:19:24;;;;;;;11.30;8.32;;;;;21.30;99627.00;;;;2072018;28;20593;-63
2023/11/13 01:20:25;;;;;;;12.45;8.55;;;;;21.30;99629.00;;;;2071126;28;20784;-63
2023/11/13 01:21:25;;;;;;;9.30;7.77;;;;;21.30;99633.00;;;;2072142;28;20194;-63
2023/11/13 01:22:26;;;;;;;11.03;8.50;;;;;21.30;99640.00;;;;2071547;28;20294;-63
2023/11/13 01:23:26;;;;;;;11.40;8.53;;;;;21.30;99632.00;;;;2060708;28;20210;-63
2023/11/13 01:24:27;;;;;;;9.97;7.80;;;;;21.30;99635.00;;;;2071085;28;20214;-63
2023/11/13 01:25:27;;;;;;;10.57;8.13;;;;;21.30;99628.00;;;;2071066;28;20568;-63
2023/11/13 01:26:27;;;;;;;9.80;8.30;;;;;21.30;99629.00;;;;2071935;28;20229;-63
2023/11/13 01:27:28;;;;;;;11.80;9.03;;;;;21.30;99639.00;;;;2071096;28;20230;-63
2023/11/13 01:28:28;;;;;;;9.00;7.37;;;;;21.30;99638.00;;;;2062244;28;20635;-63
2023/11/13 01:29:28;;;;;;;10.60;8.10;;;;;21.30;99649.00;;;;2071653;28;20202;-63
2023/11/13 01:30:29;;;;;;;10.00;7.97;;;;;21.30;99651.00;;;;2071950;28;20213;-63
2023/11/13 01:31:29;;;;;;;10.67;7.97;;;;;21.30;99654.00;;;;2071906;28;20260;-63
2023/11/13 01:32:30;;;;;;;10.50;7.67;;;;;21.30;99655.00;;;;2070981;28;20501;-63
2023/11/13 01:33:30;;;;;;;9.53;7.60;;;;;21.30;99649.00;;;;2062261;28;20207;-63
2023/11/13 01:34:30;;;;;;;7.93;6.93;;;;;21.30;99650.00;;;;2071422;28;20202;-63
2023/11/13 01:35:31;;;;;;;9.90;7.40;;;;;21.30;99653.00;;;;2067700;28;20216;-63
2023/11/13 01:36:31;;;;;;;9.30;7.40;;;;;21.30;99648.00;;;;2069363;28;20202;-63
2023/11/13 01:37:31;;;;;;;8.63;7.70;;;;;21.30;99641.00;;;;2070914;28;20241;-63
2023/11/13 01:38:33;;;;;;;8.97;7.53;;;;;21.30;99641.00;;;;2062190;28;20684;-63
2023/11/13 01:39:34;;;;;;;9.45;7.70;;;;;21.30;99638.00;;;;2071025;28;20301;-63
2023/11/13 01:40:39;;;;;;;9.70;7.55;;;;;21.30;99643.00;;;;2071096;28;20225;-63
2023/11/13 01:41:42;;;;;;;8.35;6.78;;;;;21.30;99648.00;;;;2069045;28;20214;-63
2023/11/13 01:42:42;;;;;;;6.82;6.03;;;;;21.20;99646.00;;;;2070173;28;20206;-63
2023/11/13 01:43:43;;;;;;;7.90;6.57;;;;;21.20;99643.00;;;;2061050;28;20210;-63
2023/11/13 01:44:43;;;;;;;7.60;6.07;;;;;21.20;99645.00;;;;2070108;28;20231;-63
2023/11/13 01:45:44;;;;;;;10.07;6.97;;;;;21.20;99612.00;;;;2068918;28;20218;-63
2023/11/13 01:46:44;;;;;;;8.73;6.70;;;;;21.20;99639.00;;;;2070976;28;20230;-63
2023/11/13 01:47:45;;;;;;;7.53;6.33;;;;;21.20;99590.00;;;;2071861;28;20218;-63
2023/11/13 01:48:46;;;;;;;7.10;6.15;;;;;21.20;99625.00;;;;2061223;28;20299;-63
2023/11/13 01:49:46;;;;;;;8.63;6.90;;;;;21.20;99625.00;;;;2062141;28;20219;-63
2023/11/13 01:50:47;;;;;;;6.83;6.10;;;;;21.20;99624.00;;;;2069334;28;20221;-63
2023/11/13 01:51:47;;;;;;;7.13;5.73;;;;;21.20;99618.00;;;;2078094;28;20222;-63
2023/11/13 01:52:48;;;;;;;10.70;6.73;;;;;21.20;99616.00;;;;2061606;28;20314;-63
2023/11/13 01:53:48;;;;;;;9.70;6.07;;;;;21.20;99607.00;;;;2056639;28;20238;-63
2023/11/13 01:54:48;;;;;;;8.37;6.10;;;;;21.20;99604.00;;;;2072629;28;20213;-63
2023/11/13 01:55:50;;;;;;;8.20;6.30;;;;;21.20;99609.00;;;;2071008;28;20237;-63
2023/11/13 01:56:51;;;;;;;6.82;5.95;;;;;21.20;99565.00;;;;2069921;28;20218;-63
2023/11/13 01:57:51;;;;;;;10.10;5.83;;;;;21.20;99606.00;;;;2053154;28;20639;-63
2023/11/13 01:58:52;;;;;;;6.97;5.97;;;;;21.20;99587.00;;;;2072272;28;20256;-63
2023/11/13 01:59:52;;;;;;;7.82;6.03;;;;;21.10;99593.00;;;;2062455;28;20581;-63
2023/11/13 02:00:53;;;;;;;7.17;5.80;;;;;21.20;99595.00;;;;2046013;28;20295;-63
2023/11/13 02:01:53;;;;;;;6.50;5.37;;;;;21.20;99602.00;;;;2054861;28;20217;-63
2023/11/13 02:02:53;;;;;;;7.80;6.27;;;;;21.10;99594.00;;;;2053045;28;20207;-63
2023/11/13 02:03:54;;;;;;;6.97;5.23;;;;;21.10;99596.00;;;;2054850;28;20270;-63
2023/11/13 02:04:54;;;;;;;8.40;5.40;;;;;21.10;99598.00;;;;2069881;28;20833;-63
2023/11/13 02:05:55;;;;;;;6.10;5.10;;;;;21.10;99595.00;;;;2067073;28;20594;-63
2023/11/13 02:06:56;;;;;;;7.37;5.00;;;;;21.10;99600.00;;;;2071683;28;20241;-63
2023/11/13 02:07:57;;;;;;;6.57;5.22;;;;;21.10;99596.00;;;;2060570;28;20457;-63
2023/11/13 02:08:57;;;;;;;8.03;5.37;;;;;21.10;99603.00;;;;2069407;28;20625;-63
2023/11/13 02:09:57;;;;;;;6.13;5.33;;;;;21.10;99594.00;;;;2071333;28;20681;-63
2023/11/13 02:11:00;;;;;;;6.50;4.90;;;;;21.10;99594.00;;;;2071127;28;20213;-63
2023/11/13 02:12:01;;;;;;;6.55;5.45;;;;;21.10;99599.00;;;;2063015;28;20269;-63
2023/11/13 02:13:05;;;;;;;6.90;5.60;;;;;21.10;99603.00;;;;2052898;28;20218;-63
2023/11/13 02:14:08;;;;;;;6.32;5.40;;;;;21.10;99592.00;;;;2062042;28;20230;-63
2023/11/13 02:15:09;;;;;;;7.15;5.05;;;;;21.10;99597.00;;;;2046608;28;20227;-63
2023/11/13 02:16:12;;;;;;;7.40;5.03;;;;;21.10;99598.00;;;;2062202;28;20222;-63
2023/11/13 02:17:12;;;;;;;6.72;5.10;;;;;21.10;99595.00;;;;2069993;28;20214;-63
2023/11/13 02:18:13;;;;;;;7.30;4.93;;;;;21.10;99598.00;;;;2057663;28;20261;-63
2023/11/13 02:19:16;;;;;;;9.03;5.60;;;;;21.10;99600.00;;;;2071461;28;20588;-63
2023/11/13 02:20:16;;;;;;;6.93;4.88;;;;;21.10;99602.00;;;;2068427;28;20229;-63
2023/11/13 02:21:17;;;;;;;5.60;4.60;;;;;21.10;99603.00;;;;2060795;28;20241;-63
2023/11/13 02:22:17;;;;;;;7.47;5.50;;;;;21.10;99604.00;;;;2070776;28;20277;-63
2023/11/13 02:23:17;;;;;;;5.40;4.50;;;;;21.10;99602.00;;;;2065121;28;20722;-63
2023/11/13 02:24:18;;;;;;;6.47;4.90;;;;;21.10;99585.00;;;;2078962;28;20704;-63
2023/11/13 02:25:22;;;;;;;5.90;4.60;;;;;21.10;99603.00;;;;2066628;28;20223;-63
2023/11/13 02:26:24;;;;;;;4.88;3.97;;;;;21.10;99607.00;;;;2070454;28;20258;-63
2023/11/13 02:27:24;;;;;;;6.15;4.78;;;;;21.10;99604.00;;;;2070839;28;20214;-63
2023/11/13 02:28:24;;;;;;;5.93;4.90;;;;;21.10;99607.00;;;;2060985;28;20206;-63
2023/11/13 02:29:25;;;;;;;7.03;4.40;;;;;21.10;99600.00;;;;2070054;28;20942;-63
2023/11/13 02:30:25;;;;;;;5.30;4.43;;;;;21.10;99597.00;;;;2071400;28;20214;-63
2023/11/13 02:31:25;;;;;;;6.00;4.53;;;;;21.10;99599.00;;;;2071749;28;20221;-63
2023/11/13 02:32:26;;;;;;;7.43;4.37;;;;;21.10;99599.00;;;;2069149;28;20221;-63
2023/11/13 02:33:26;;;;;;;4.43;3.83;;;;;21.00;99588.00;;;;2062034;28;20210;-63
2023/11/13 02:34:27;;;;;;;5.90;3.87;;;;;21.00;99594.00;;;;2070708;28;20252;-63
2023/11/13 02:35:27;;;;;;;5.77;4.53;;;;;21.00;99594.00;;;;2070570;28;20202;-63
2023/11/13 02:36:27;;;;;;;5.60;4.20;;;;;21.00;99592.00;;;;2070443;28;20211;-63
2023/11/13 02:37:29;;;;;;;5.33;4.10;;;;;21.00;99597.00;;;;2070121;28;20216;-63
2023/11/13 02:38:30;;;;;;;5.65;4.30;;;;;21.00;99594.00;;;;2060968;28;20222;-63
2023/11/13 02:39:31;;;;;;;5.00;4.13;;;;;21.00;99591.00;;;;2070776;28;20246;-63
2023/11/13 02:40:32;;;;;;;4.57;4.00;;;;;21.00;99593.00;;;;2071604;28;20246;-63
2023/11/13 02:41:32;;;;;;;5.13;4.33;;;;;21.00;99602.00;;;;2070913;28;20210;-63
2023/11/13 02:42:34;;;;;;;6.77;4.67;;;;;21.00;99599.00;;;;2072511;28;20281;-63
2023/11/13 02:43:34;;;;;;;5.70;3.70;;;;;21.00;99602.00;;;;2063329;28;20289;-63
2023/11/13 02:44:35;;;;;;;6.20;4.00;;;;;21.00;99593.00;;;;2072279;28;20749;-63
2023/11/13 02:45:35;;;;;;;4.50;3.90;;;;;21.00;99598.00;;;;2073040;28;20210;-63
2023/11/13 02:46:35;;;;;;;4.30;3.43;;;;;21.10;99600.00;;;;2072204;28;20206;-63
2023/11/13 02:47:36;;;;;;;5.60;3.77;;;;;21.00;99592.00;;;;2073108;28;20206;-63
2023/11/13 02:48:36;;;;;;;6.20;4.50;;;;;21.00;99594.00;;;;2061136;28;20264;-63
2023/11/13 02:49:37;;;;;;;6.27;3.90;;;;;21.00;99597.00;;;;2068838;28;20225;-63
2023/11/13 02:50:37;;;;;;;5.10;3.77;;;;;21.00;99589.00;;;;2072030;28;20206;-63
2023/11/13 02:51:37;;;;;;;5.03;4.13;;;;;21.00;99589.00;;;;2072333;28;20277;-63
2023/11/13 02:52:38;;;;;;;4.43;3.50;;;;;21.00;99581.00;;;;2070922;28;20202;-63
2023/11/13 02:53:38;;;;;;;3.83;3.43;;;;;21.00;99576.00;;;;2061133;28;20225;-63
2023/11/13 02:54:38;;;;;;;5.77;3.83;;;;;21.00;99570.00;;;;2072902;28;20230;-63
2023/11/13 02:55:39;;;;;;;4.30;3.40;;;;;21.00;99566.00;;;;2072920;28;20218;-63
2023/11/13 02:56:40;;;;;;;5.13;3.37;;;;;21.00;99570.00;;;;2069783;28;20211;-63
2023/11/13 02:57:40;;;;;;;4.72;3.95;;;;;21.00;99553.00;;;;2072318;28;20271;-63
2023/11/13 02:58:41;;;;;;;4.00;3.33;;;;;21.00;99551.00;;;;2058264;28;20245;-63
2023/11/13 02:59:41;;;;;;;4.23;3.73;;;;;21.00;99557.00;;;;2072552;28;20214;-63
2023/11/13 03:00:41;;;;;;;4.80;3.73;;;;;21.00;99555.00;;;;2072266;28;20210;-63
2023/11/13 03:01:42;;;;;;;4.13;3.20;;;;;21.00;99560.00;;;;2072061;28;20230;-63
2023/11/13 03:02:42;;;;;;;5.30;4.00;;;;;21.00;99557.00;;;;2071039;28;20214;-63
2023/11/13 03:03:43;;;;;;;4.53;3.80;;;;;21.00;99551.00;;;;2062465;28;20222;-63
2023/11/13 03:04:43;;;;;;;4.27;3.30;;;;;21.00;99557.00;;;;2072743;28;20237;-63
2023/11/13 03:05:44;;;;;;;4.33;3.63;;;;;21.00;99552.00;;;;2068228;28;20453;-63
2023/11/13 03:06:44;;;;;;;4.47;3.70;;;;;21.00;99554.00;;;;2069609;28;20655;-63
2023/11/13 03:07:45;;;;;;;5.33;3.90;;;;;21.00;99543.00;;;;2072266;28;20218;-63
2023/11/13 03:08:45;;;;;;;3.30;3.00;;;;;21.00;99561.00;;;;2063216;28;20206;-63
2023/11/13 03:09:46;;;;;;;5.03;3.77;;;;;21.00;99564.00;;;;2072882;28;20222;-63
2023/11/13 03:10:46;;;;;;;3.80;3.10;;;;;20.90;99557.00;;;;2072033;28;20953;-63
2023/11/13 03:11:47;;;;;;;5.40;3.17;;;;;21.00;99557.00;;;;2072727;28;20213;-63
2023/11/13 03:12:47;;;;;;;4.23;3.60;;;;;20.90;99568.00;;;;2071349;28;20273;-63
2023/11/13 03:13:47;;;;;;;4.10;3.40;;;;;21.00;99566.00;;;;2062216;28;20261;-63
2023/11/13 03:14:51;;;;;;;4.60;3.17;;;;;20.90;99564.00;;;;2071644;28;20222;-63
2023/11/13 03:15:51;;;;;;;4.07;3.40;;;;;20.90;99563.00;;;;2068914;28;20272;-63
2023/11/13 03:16:51;;;;;;;3.80;3.27;;;;;20.90;99556.00;;;;2072688;28;20264;-63
2023/11/13 03:17:51;;;;;;;3.40;2.90;;;;;20.90;99549.00;;;;2062217;28;20206;-63
2023/11/13 03:18:52;;;;;;;3.60;2.80;;;;;20.90;99547.00;;;;2072782;28;20222;-63
2023/11/13 03:19:52;;;;;;;5.00;3.07;;;;;20.90;99546.00;;;;2071604;28;20259;-63
2023/11/13 03:20:53;;;;;;;3.37;2.90;;;;;20.90;99546.00;;;;2070675;28;20276;-63
2023/11/13 03:21:53;;;;;;;4.47;3.20;;;;;20.90;99546.00;;;;2072519;28;20573;-63
2023/11/13 03:22:53;;;;;;;4.97;3.50;;;;;20.90;99550.00;;;;2062621;28;20705;-63
2023/11/13 03:23:54;;;;;;;3.90;3.07;;;;;20.90;99554.00;;;;2072495;28;20709;-63
2023/11/13 03:24:54;;;;;;;4.03;3.20;;;;;20.90;99553.00;;;;2070316;28;20214;-63
2023/11/13 03:25:54;;;;;;;4.17;3.27;;;;;20.90;99555.00;;;;2064901;28;20215;-63
2023/11/13 03:26:55;;;;;;;4.10;3.13;;;;;20.90;99554.00;;;;2066434;28;20227;-63
2023/11/13 03:27:55;;;;;;;3.90;3.20;;;;;20.90;99550.00;;;;2061578;28;20585;-63
2023/11/13 03:28:56;;;;;;;4.00;2.80;;;;;20.90;99546.00;;;;2072839;28;20725;-63
2023/11/13 03:29:58;;;;;;;3.37;2.60;;;;;20.90;99546.00;;;;2074253;28;20217;-63
2023/11/13 03:30:58;;;;;;;3.65;2.80;;;;;20.90;99552.00;;;;2074708;28;20218;-63
2023/11/13 03:31:58;;;;;;;3.83;3.03;;;;;20.90;99537.00;;;;2074495;28;20213;-63
2023/11/13 03:32:59;;;;;;;7.90;2.87;;;;;20.90;99540.00;;;;2065549;28;20202;-63
2023/11/13 03:33:59;;;;;;;3.17;2.47;;;;;20.90;99541.00;;;;2078403;28;20214;-63
2023/11/13 03:35:00;;;;;;;4.40;3.20;;;;;20.90;99540.00;;;;2074491;28;20218;-63
2023/11/13 03:36:00;;;;;;;3.60;2.90;;;;;20.90;99544.00;;;;2072775;28;20612;-63
2023/11/13 03:37:01;;;;;;;3.20;2.80;;;;;20.90;99538.00;;;;2076427;28;20643;-63
2023/11/13 03:38:01;;;;;;;4.03;3.00;;;;;20.90;99551.00;;;;2064085;28;20218;-63
2023/11/13 03:39:01;;;;;;;5.00;3.37;;;;;20.80;99546.00;;;;2071809;28;20222;-63
2023/11/13 03:40:02;;;;;;;4.40;3.30;;;;;20.90;99550.00;;;;2064728;28;20261;-63
2023/11/13 03:41:02;;;;;;;3.23;2.93;;;;;20.90;99560.00;;;;2071596;28;20209;-63
2023/11/13 03:42:03;;;;;;;4.07;3.03;;;;;20.90;99561.00;;;;2072945;28;20556;-63
2023/11/13 03:43:03;;;;;;;3.13;2.73;;;;;20.90;99569.00;;;;2063132;28;20241;-63
2023/11/13 03:44:04;;;;;;;3.77;2.80;;;;;20.90;99556.00;;;;2072286;28;20322;-63
2023/11/13 03:45:05;;;;;;;2.80;2.50;;;;;20.90;99554.00;;;;2073465;28;20701;-63
2023/11/13 03:46:05;;;;;;;2.97;2.27;;;;;20.90;99552.00;;;;2067364;28;20477;-63
2023/11/13 03:47:06;;;;;;;2.80;2.50;;;;;20.90;99555.00;;;;2073272;28;20453;-63
2023/11/13 03:48:07;;;;;;;2.97;2.50;;;;;20.80;99550.00;;;;2062827;28;20221;-63
2023/11/13 03:49:08;;;;;;;5.00;3.13;;;;;20.80;99556.00;;;;2072425;28;20560;-63
2023/11/13 03:50:08;;;;;;;3.22;2.60;;;;;20.80;99567.00;;;;2073673;28;20666;-63
2023/11/13 03:51:10;;;;;;;4.17;2.67;;;;;20.80;99565.00;;;;2072236;28;20214;-63
2023/11/13 03:52:13;;;;;;;3.85;2.40;;;;;20.80;99568.00;;;;2073188;28;20210;-63
2023/11/13 03:53:13;;;;;;;3.40;2.55;;;;;20.90;99563.00;;;;2062422;28;20226;-63
2023/11/13 03:54:14;;;;;;;5.03;2.50;;;;;20.90;99576.00;;;;2073092;28;20210;-63
2023/11/13 03:55:14;;;;;;;4.07;2.97;;;;;20.80;99561.00;;;;2069921;28;20662;-63
2023/11/13 03:56:14;;;;;;;2.80;2.50;;;;;20.90;99580.00;;;;2072340;28;20273;-63
2023/11/13 03:57:15;;;;;;;4.77;3.03;;;;;20.90;99574.00;;;;2072782;28;20210;-63
2023/11/13 03:58:15;;;;;;;3.20;2.60;;;;;20.90;99574.00;;;;2064924;28;20727;-63
2023/11/13 03:59:15;;;;;;;4.50;2.60;;;;;20.80;99555.00;;;;2072609;28;20218;-63
2023/11/13 04:00:16;;;;;;;3.30;2.70;;;;;20.80;99561.00;;;;2071989;28;20681;-63
2023/11/13 04:01:17;;;;;;;3.17;2.10;;;;;20.80;99570.00;;;;2071823;28;20633;-63
2023/11/13 04:02:18;;;;;;;2.73;2.53;;;;;20.80;99574.00;;;;2072561;28;20213;-63
2023/11/13 04:03:19;;;;;;;3.20;2.90;;;;;20.80;99571.00;;;;2062518;28;20536;-63
2023/11/13 04:04:19;;;;;;;3.07;2.50;;;;;20.80;99574.00;;;;2072418;28;20222;-63
2023/11/13 04:05:20;;;;;;;3.23;2.83;;;;;20.80;99572.00;;;;2070870;28;20213;-63
2023/11/13 04:06:20;;;;;;;3.07;2.70;;;;;20.80;99571.00;;;;2069770;28;20253;-63
2023/11/13 04:07:24;;;;;;;3.33;2.47;;;;;20.80;99568.00;;;;2071249;28;20226;-63
2023/11/13 04:08:24;;;;;;;3.03;2.50;;;;;20.80;99562.00;;;;2062691;28;20218;-63
2023/11/13 04:09:24;;;;;;;3.33;2.77;;;;;20.80;99552.00;;;;2071508;28;20225;-63
2023/11/13 04:10:25;;;;;;;3.33;2.97;;;;;20.80;99571.00;;;;2072242;28;20215;-63
2023/11/13 04:11:26;;;;;;;3.20;2.80;;;;;20.80;99566.00;;;;2072648;28;20360;-63
2023/11/13 04:12:26;;;;;;;2.75;2.33;;;;;20.80;99567.00;;;;2069435;28;20225;-63
2023/11/13 04:13:27;;;;;;;3.33;2.70;;;;;20.80;99532.00;;;;2062804;28;20209;-63
2023/11/13 04:14:27;;;;;;;3.90;2.60;;;;;20.80;99562.00;;;;2073718;28;20273;-63
2023/11/13 04:15:28;;;;;;;2.80;2.50;;;;;20.80;99575.00;;;;2077515;28;20264;-63
2023/11/13 04:16:28;;;;;;;3.00;2.20;;;;;20.70;99570.00;;;;2071925;28;20210;-63
2023/11/13 04:17:29;;;;;;;3.17;2.50;;;;;20.70;99574.00;;;;2071756;28;20225;-63
2023/11/13 04:18:29;;;;;;;2.93;2.50;;;;;20.80;99573.00;;;;2062749;28;20214;-63
2023/11/13 04:19:30;;;;;;;2.57;2.30;;;;;20.80;99575.00;;;;2071149;28;20272;-63
2023/11/13 04:20:31;;;;;;;2.90;2.50;;;;;20.80;99580.00;;;;2072316;28;20693;-63
2023/11/13 04:21:31;;;;;;;4.30;2.20;;;;;20.80;99579.00;;;;2072813;28;20218;-63
2023/11/13 04:22:32;;;;;;;4.33;2.43;;;;;20.80;99577.00;;;;2074522;28;20298;-63
2023/11/13 04:23:33;;;;;;;2.90;2.25;;;;;20.80;99570.00;;;;2062031;28;20206;-63
2023/11/13 04:24:33;;;;;;;3.60;2.47;;;;;20.80;99570.00;;;;2071272;28;20720;-63
2023/11/13 04:25:34;;;;;;;2.73;2.03;;;;;20.80;99569.00;;;;2072061;28;20628;-63
2023/11/13 04:26:34;;;;;;;3.00;2.67;;;;;20.80;99562.00;;;;2071401;28;20749;-63
2023/11/13 04:27:34;;;;;;;3.07;2.40;;;;;20.80;99561.00;;;;2070248;28;20229;-63
2023/11/13 04:28:35;;;;;;;3.70;2.40;;;;;20.80;99566.00;;;;2061950;28;20214;-63
2023/11/13 04:29:36;;;;;;;3.00;2.33;;;;;20.80;99578.00;;;;2072098;28;20241;-63
2023/11/13 04:30:37;;;;;;;2.85;2.30;;;;;20.80;99586.00;;;;2072252;28;20592;-63
2023/11/13 04:31:37;;;;;;;2.80;2.50;;;;;20.80;99582.00;;;;2071467;28;20214;-63
2023/11/13 04:32:37;;;;;;;3.43;2.70;;;;;20.80;99584.00;;;;2072269;28;20221;-63
2023/11/13 04:33:38;;;;;;;2.70;2.33;;;;;20.70;99570.00;;;;2061346;28;20214;-63
2023/11/13 04:34:38;;;;;;;3.60;2.80;;;;;20.70;99555.00;;;;2072215;28;20217;-63
2023/11/13 04:35:38;;;;;;;3.63;2.60;;;;;20.80;99550.00;;;;2066590;28;20238;-63
2023/11/13 04:36:42;;;;;;;2.80;2.40;;;;;20.70;99546.00;;;;2072232;28;20226;-63
2023/11/13 04:37:42;;;;;;;3.28;2.67;;;;;20.70;99557.00;;;;2070648;28;20218;-63
2023/11/13 04:38:42;;;;;;;2.70;2.47;;;;;20.70;99555.00;;;;2060622;28;20218;-63
2023/11/13 04:39:43;;;;;;;3.00;2.20;;;;;20.70;99553.00;;;;2069525;28;20218;-63
2023/11/13 04:40:44;;;;;;;3.47;2.60;;;;;20.70;99554.00;;;;2068314;28;20346;-63
2023/11/13 04:41:45;;;;;;;2.97;2.67;;;;;20.70;99565.00;;;;2069239;28;20260;-63
2023/11/13 04:42:45;;;;;;;4.00;2.53;;;;;20.70;99565.00;;;;2054999;28;20759;-63
2023/11/13 04:43:46;;;;;;;3.83;2.40;;;;;20.70;99567.00;;;;2064303;28;20742;-63
2023/11/13 04:44:47;;;;;;;2.70;2.38;;;;;20.70;99574.00;;;;2070579;28;20296;-63
2023/11/13 04:45:47;;;;;;;2.57;2.23;;;;;20.70;99569.00;;;;2071077;28;20615;-63
2023/11/13 04:46:47;;;;;;;2.70;1.90;;;;;20.70;99567.00;;;;2072090;28;20644;-63
2023/11/13 04:47:48;;;;;;;2.73;2.50;;;;;20.70;99569.00;;;;2068824;28;20217;-63
2023/11/13 04:48:48;;;;;;;2.80;2.30;;;;;20.80;99553.00;;;;2065318;28;20198;-63
2023/11/13 04:49:49;;;;;;;2.20;2.00;;;;;20.70;99540.00;;;;2072020;28;20318;-63
2023/11/13 04:50:50;;;;;;;3.13;2.37;;;;;20.70;99561.00;;;;2071723;28;20226;-62
2023/11/13 04:51:51;;;;;;;2.25;2.00;;;;;20.70;99557.00;;;;2072017;28;20468;-62
2023/11/13 04:52:51;;;;;;;3.07;2.20;;;;;20.70;99545.00;;;;2059753;28;20649;-62
2023/11/13 04:53:51;;;;;;;3.63;2.30;;;;;20.70;99542.00;;;;2072211;28;20568;-62
2023/11/13 04:54:52;;;;;;;2.50;2.30;;;;;20.70;99540.00;;;;2069920;28;21272;-62
2023/11/13 04:55:52;;;;;;;3.07;1.97;;;;;20.70;99530.00;;;;2070051;28;20809;-62
2023/11/13 04:56:55;;;;;;;2.73;1.80;;;;;20.70;99532.00;;;;2072135;28;20679;-63
2023/11/13 04:57:55;;;;;;;3.58;2.22;;;;;20.70;99532.00;;;;2061954;28;20249;-63
2023/11/13 04:58:56;;;;;;;2.57;1.97;;;;;20.70;99530.00;;;;2079646;28;20287;-63
2023/11/13 04:59:56;;;;;;;3.17;2.37;;;;;20.70;99525.00;;;;2075101;28;20231;-63
2023/11/13 05:00:56;;;;;;;2.60;1.90;;;;;20.70;99525.00;;;;2070193;28;20280;-63
2023/11/13 05:01:57;;;;;;;2.27;1.80;;;;;20.70;99526.00;;;;2071852;28;20218;-63